Time;durP1;ratioP1;P1;durP2;ratioP2;P2;SDS_P1;SDS_P2;PMS_P1;PMS_P2;Temp;Humidity;BMP_temperature;BMP_pressure;BME280_temperature;BME280_humidity;BME280_pressure;Samples;Min_cycle;Max_cycle;Signal;HPM_P1;HPM_P2
2022/05/19 00:00:31;;;;;;;3.28;1.60;;;18.00;95.30;;;;;;5036856;28;20022;-71
2022/05/19 00:02:58;;;;;;;7.63;2.25;;;18.50;94.20;;;;;;5032192;28;20139;-71
2022/05/19 00:05:26;;;;;;;4.20;2.47;;;18.90;93.60;;;;;;5031236;28;20021;-72
2022/05/19 00:07:53;;;;;;;5.43;2.00;;;19.50;92.60;;;;;;5032907;28;20550;-72
2022/05/19 00:10:21;;;;;;;3.60;1.60;;;19.90;92.50;;;;;;5037850;28;20048;-72
2022/05/19 00:12:48;;;;;;;4.40;1.85;;;20.00;90.90;;;;;;5031981;28;20120;-71
2022/05/19 00:15:16;;;;;;;1.48;0.82;;;20.20;90.60;;;;;;5032158;28;20136;-72
2022/05/19 00:17:43;;;;;;;3.85;1.70;;;20.20;88.80;;;;;;5031996;28;20129;-71
2022/05/19 00:20:11;;;;;;;2.05;1.35;;;20.40;88.10;;;;;;5035676;28;20025;-71
2022/05/19 00:22:38;;;;;;;2.65;1.60;;;20.30;89.30;;;;;;5044590;28;20056;-71
2022/05/19 00:25:06;;;;;;;3.47;1.55;;;20.00;89.00;;;;;;5036565;28;20029;-71
2022/05/19 00:27:33;;;;;;;3.22;1.90;;;19.70;88.90;;;;;;5041493;28;20029;-70
2022/05/19 00:30:00;;;;;;;1.42;0.80;;;19.50;90.10;;;;;;5037416;28;20072;-70
2022/05/19 00:32:28;;;;;;;2.42;1.05;;;19.30;90.20;;;;;;5036495;28;20025;-70
2022/05/19 00:34:55;;;;;;;1.60;0.65;;;19.10;90.10;;;;;;5034721;28;20028;-70
2022/05/19 00:37:23;;;;;;;2.60;0.90;;;19.60;88.50;;;;;;5031248;28;20100;-71
2022/05/19 00:39:50;;;;;;;1.25;0.50;;;20.40;87.40;;;;;;5036009;28;20484;-71
2022/05/19 00:45:05;;;;;;;3.42;0.63;;;21.70;86.50;;;;;;5036565;28;20441;-69
2022/05/19 00:47:57;;;;;;;5.18;0.82;;;22.70;83.30;;;;;;5029894;28;20041;-70
2022/05/19 00:50:48;;;;;;;0.73;0.38;;;22.80;83.50;;;;;;5044150;28;20045;-70
2022/05/19 00:53:24;;;;;;;2.33;0.70;;;22.70;81.70;;;;;;5049168;28;20032;-71
2022/05/19 00:55:52;;;;;;;3.53;1.05;;;23.70;81.60;;;;;;5045529;28;20037;-71
2022/05/19 00:58:36;;;;;;;1.05;0.38;;;24.10;80.10;;;;;;5039640;28;20021;-71
2022/05/19 01:01:06;;;;;;;1.48;0.30;;;24.50;79.00;;;;;;5044196;28;20043;-71
2022/05/19 01:03:41;;;;;;;1.20;0.20;;;24.50;80.60;;;;;;5036112;28;20051;-71
2022/05/19 01:06:15;;;;;;;1.77;0.50;;;24.90;78.30;;;;;;5032956;28;20032;-71
2022/05/19 01:08:56;;;;;;;6.93;0.47;;;24.70;78.80;;;;;;5029273;28;20022;-72
2022/05/19 01:11:23;;;;;;;1.10;0.65;;;24.50;79.80;;;;;;5041139;28;20041;-70
2022/05/19 01:13:51;;;;;;;1.88;0.40;;;24.30;80.00;;;;;;5028214;28;20033;-70
2022/05/19 01:16:19;;;;;;;1.10;0.20;;;23.70;79.80;;;;;;5033250;28;20665;-68
2022/05/19 01:18:47;;;;;;;2.10;0.40;;;23.70;80.30;;;;;;5040622;28;20380;-70
2022/05/19 01:21:17;;;;;;;0.60;0.30;;;24.30;80.60;;;;;;5039757;28;20033;-69
2022/05/19 01:24:06;;;;;;;1.63;0.55;;;24.60;79.80;;;;;;5038339;28;20029;-69
2022/05/19 01:26:40;;;;;;;1.33;0.40;;;24.70;80.00;;;;;;5032096;28;20025;-70
2022/05/19 01:29:12;;;;;;;1.70;0.20;;;24.90;81.30;;;;;;5025101;28;20056;-71
2022/05/19 01:31:48;;;;;;;0.98;0.13;;;25.00;79.80;;;;;;5032331;28;20060;-70
2022/05/19 01:34:18;;;;;;;0.88;0.28;;;24.60;78.00;;;;;;5028619;28;20025;-71
2022/05/19 01:36:46;;;;;;;0.40;0.20;;;24.50;78.90;;;;;;5027340;28;20071;-70
2022/05/19 01:39:20;;;;;;;1.33;0.10;;;24.30;78.10;;;;;;5035001;28;20203;-69
2022/05/19 01:42:27;;;;;;;0.20;0.10;;;24.50;76.30;;;;;;5049945;28;20034;-69
2022/05/19 01:44:58;;;;;;;1.48;0.10;;;24.00;78.00;;;;;;5044083;28;20073;-71
2022/05/19 01:47:47;;;;;;;1.42;0.30;;;24.50;77.80;;;;;;5040516;28;20419;-70
2022/05/19 01:50:17;;;;;;;3.03;0.30;;;25.00;77.10;;;;;;5033588;28;20051;-70
2022/05/19 01:53:05;;;;;;;2.53;0.20;;;25.20;78.20;;;;;;5031588;28;20056;-70
2022/05/19 01:56:07;;;;;;;0.75;0.20;;;25.20;76.30;;;;;;5038170;28;20029;-68
2022/05/19 01:58:39;;;;;;;0.20;0.10;;;24.40;75.90;;;;;;5034341;28;20040;-69
2022/05/19 02:01:08;;;;;;;0.73;0.20;;;23.50;75.90;;;;;;5037499;28;20464;-71
2022/05/19 02:03:49;;;;;;;0.55;0.20;;;22.50;77.80;;;;;;5031087;28;20507;-71
2022/05/19 02:06:39;;;;;;;0.60;0.10;;;22.10;79.70;;;;;;5034641;28;20476;-70
2022/05/19 02:09:30;;;;;;;0.38;0.17;;;23.20;76.80;;;;;;5033268;28;20037;-71
2022/05/19 02:12:00;;;;;;;1.30;0.20;;;24.10;77.20;;;;;;5038153;28;20495;-72
2022/05/19 02:15:03;;;;;;;0.73;0.10;;;24.00;77.40;;;;;;5043834;28;20044;-71
2022/05/19 02:17:33;;;;;;;1.20;0.20;;;23.20;79.80;;;;;;5020511;28;20044;-70
2022/05/19 02:20:05;;;;;;;1.67;0.25;;;23.20;79.40;;;;;;5037264;28;20472;-71
2022/05/19 02:22:42;;;;;;;1.80;0.20;;;23.10;78.00;;;;;;5031245;28;20038;-69
2022/05/19 02:25:26;;;;;;;1.73;0.20;;;23.80;76.30;;;;;;5041632;28;20025;-68
2022/05/19 02:28:31;;;;;;;1.23;0.30;;;24.60;74.50;;;;;;5038167;28;20055;-70
2022/05/19 02:30:59;;;;;;;0.35;0.10;;;25.10;73.50;;;;;;5037466;28;20083;-70
2022/05/19 02:33:26;;;;;;;1.80;0.20;;;25.20;71.30;;;;;;5040823;28;20032;-70
2022/05/19 02:35:54;;;;;;;0.77;0.20;;;25.20;73.70;;;;;;5036837;28;20040;-70
2022/05/19 02:38:22;;;;;;;1.00;0.20;;;25.00;72.90;;;;;;5033988;28;20115;-71
2022/05/19 02:40:51;;;;;;;0.10;0.10;;;25.20;72.80;;;;;;5047790;28;20143;-71
2022/05/19 02:43:19;;;;;;;0.43;0.10;;;24.80;70.70;;;;;;5034577;28;20056;-71
2022/05/19 02:45:47;;;;;;;0.82;0.15;;;24.80;69.40;;;;;;5037469;28;20599;-68
2022/05/19 02:48:15;;;;;;;1.33;0.15;;;24.50;70.00;;;;;;5047794;28;20139;-68
2022/05/19 02:50:44;;;;;;;0.75;0.35;;;24.50;69.40;;;;;;5035283;28;20045;-68
2022/05/19 02:53:12;;;;;;;0.20;0.20;;;24.20;69.80;;;;;;5041141;28;20073;-72
2022/05/19 02:55:41;;;;;;;0.65;0.28;;;24.50;71.90;;;;;;5036096;28;20051;-69
2022/05/19 02:58:10;;;;;;;1.67;0.17;;;24.30;69.90;;;;;;5032103;28;20029;-69
2022/05/19 03:00:38;;;;;;;0.00;0.00;;;24.10;69.20;;;;;;5033901;28;20021;-68
2022/05/19 03:03:06;;;;;;;0.40;0.20;;;24.20;67.60;;;;;;5036724;28;20491;-67
2022/05/19 03:05:34;;;;;;;1.58;0.13;;;23.80;68.70;;;;;;5070953;28;20104;-68
2022/05/19 03:08:01;;;;;;;0.03;0.00;;;23.80;68.50;;;;;;5048208;28;20491;-68
2022/05/19 03:10:29;;;;;;;0.60;0.10;;;23.50;68.00;;;;;;5043405;28;20045;-69
2022/05/19 03:12:57;;;;;;;0.25;0.10;;;23.60;69.20;;;;;;5033901;28;20033;-68
2022/05/19 03:15:25;;;;;;;1.98;0.17;;;23.40;69.50;;;;;;5039054;28;20095;-69
2022/05/19 03:17:53;;;;;;;2.60;0.17;;;23.40;69.10;;;;;;5051643;28;20021;-68
2022/05/19 03:20:21;;;;;;;0.25;0.08;;;23.20;68.80;;;;;;5045541;28;20064;-69
2022/05/19 03:22:48;;;;;;;0.20;0.00;;;22.60;69.70;;;;;;5033215;28;20049;-68
2022/05/19 03:25:16;;;;;;;2.03;0.10;;;22.20;70.10;;;;;;5030507;28;20482;-68
2022/05/19 03:27:43;;;;;;;0.43;0.20;;;21.90;69.80;;;;;;5032176;28;20388;-69
2022/05/19 03:30:15;;;;;;;2.00;0.40;;;21.70;69.90;;;;;;5036715;28;20432;-68
2022/05/19 03:32:43;;;;;;;0.75;0.13;;;21.40;69.00;;;;;;5040653;28;20048;-70
2022/05/19 03:35:11;;;;;;;0.00;0.00;;;21.20;72.10;;;;;;5036005;28;20024;-69
2022/05/19 03:37:39;;;;;;;1.70;0.30;;;20.90;73.10;;;;;;5029932;28;20060;-68
2022/05/19 03:40:07;;;;;;;0.30;0.17;;;20.50;72.20;;;;;;5031849;28;20034;-68
2022/05/19 03:42:34;;;;;;;0.30;0.10;;;20.30;73.10;;;;;;5031860;28;20021;-68
2022/05/19 03:45:03;;;;;;;0.85;0.10;;;20.10;72.30;;;;;;5036955;28;20480;-70
2022/05/19 03:47:31;;;;;;;0.93;0.25;;;19.90;71.80;;;;;;5045471;28;20037;-70
2022/05/19 03:49:59;;;;;;;0.75;0.17;;;19.80;72.70;;;;;;5036392;28;20029;-69
2022/05/19 03:52:26;;;;;;;0.63;0.20;;;19.80;74.10;;;;;;5031704;28;20025;-70
2022/05/19 03:54:54;;;;;;;1.30;0.25;;;19.80;74.30;;;;;;5034656;28;20040;-70
2022/05/19 03:57:23;;;;;;;0.57;0.10;;;19.70;74.10;;;;;;5039735;28;20074;-69
2022/05/19 03:59:51;;;;;;;0.65;0.10;;;19.60;74.30;;;;;;5033491;28;20052;-70
2022/05/19 04:02:18;;;;;;;1.40;0.20;;;19.60;75.40;;;;;;5039007;28;20033;-69
2022/05/19 04:04:46;;;;;;;0.40;0.10;;;19.40;75.20;;;;;;5035126;28;20523;-69
2022/05/19 04:07:13;;;;;;;0.70;0.68;;;19.40;75.20;;;;;;5044490;28;20032;-69
2022/05/19 04:09:41;;;;;;;0.55;0.15;;;19.30;75.80;;;;;;5040659;28;20052;-68
2022/05/19 04:12:09;;;;;;;0.17;0.10;;;19.20;77.00;;;;;;5033191;28;20396;-68
2022/05/19 04:14:36;;;;;;;1.85;0.30;;;19.20;77.00;;;;;;5033506;28;20029;-69
2022/05/19 04:17:04;;;;;;;28.42;25.23;;;19.10;77.20;;;;;;5042368;28;20033;-69
2022/05/19 04:19:31;;;;;;;14.95;6.15;;;19.10;77.70;;;;;;5036189;28;20439;-68
2022/05/19 04:21:59;;;;;;;5.63;1.60;;;19.00;78.10;;;;;;5036087;28;20056;-68
2022/05/19 04:24:26;;;;;;;2.15;0.82;;;19.00;76.90;;;;;;5034161;28;20024;-68
2022/05/19 04:26:53;;;;;;;15.50;3.65;;;18.90;76.60;;;;;;5039141;28;20033;-69
2022/05/19 04:29:21;;;;;;;2.10;0.73;;;18.90;77.70;;;;;;5033871;28;20067;-69
2022/05/19 04:31:48;;;;;;;0.65;0.10;;;18.80;77.00;;;;;;5046636;28;20491;-69
2022/05/19 04:34:15;;;;;;;1.80;0.85;;;18.80;77.00;;;;;;5035062;28;20104;-69
2022/05/19 04:36:44;;;;;;;0.20;0.10;;;18.70;76.20;;;;;;5034384;28;20040;-69
2022/05/19 04:39:11;;;;;;;0.38;0.20;;;18.70;76.40;;;;;;5037635;28;20040;-69
2022/05/19 04:41:38;;;;;;;0.25;0.10;;;18.70;76.60;;;;;;5037908;28;20108;-69
2022/05/19 04:44:06;;;;;;;2.45;1.48;;;18.60;77.00;;;;;;5037435;28;20044;-69
2022/05/19 04:46:34;;;;;;;0.30;0.15;;;18.60;77.80;;;;;;5035309;28;20028;-70
2022/05/19 04:49:01;;;;;;;1.33;0.40;;;18.50;77.70;;;;;;5039777;28;20048;-69
2022/05/19 04:51:28;;;;;;;1.75;0.10;;;18.50;77.60;;;;;;5029633;28;20346;-70
2022/05/19 04:53:56;;;;;;;0.32;0.20;;;18.40;77.00;;;;;;5036442;28;20021;-69
2022/05/19 04:56:23;;;;;;;1.25;0.30;;;18.40;77.40;;;;;;5027833;28;20025;-69
2022/05/19 04:58:50;;;;;;;2.65;0.50;;;18.30;77.40;;;;;;5032812;28;20033;-69
2022/05/19 05:01:18;;;;;;;1.33;0.38;;;18.20;79.60;;;;;;5039497;28;20071;-69
2022/05/19 05:03:45;;;;;;;2.13;0.40;;;18.20;79.60;;;;;;5037142;28;20035;-70
2022/05/19 05:06:13;;;;;;;3.05;0.82;;;18.20;80.50;;;;;;5037232;28;20029;-69
2022/05/19 05:08:40;;;;;;;8.05;2.72;;;18.30;80.60;;;;;;5033189;28;20438;-69
2022/05/19 05:11:07;;;;;;;5.32;0.90;;;18.30;80.20;;;;;;5038423;28;20034;-70
2022/05/19 05:13:34;;;;;;;1.27;0.63;;;18.30;79.60;;;;;;5041711;28;20017;-70
2022/05/19 05:16:02;;;;;;;0.88;0.30;;;18.30;79.10;;;;;;5042000;28;20025;-70
2022/05/19 05:18:29;;;;;;;0.63;0.30;;;18.20;79.70;;;;;;5046271;28;20174;-70
2022/05/19 05:20:56;;;;;;;0.60;0.20;;;18.20;79.20;;;;;;5034726;28;20033;-69
2022/05/19 05:23:24;;;;;;;0.85;0.20;;;18.30;78.90;;;;;;5042258;28;20030;-70
2022/05/19 05:25:51;;;;;;;0.65;0.20;;;18.40;79.00;;;;;;5037492;28;21405;-70
2022/05/19 05:28:19;;;;;;;0.82;0.20;;;18.40;78.50;;;;;;5036221;28;20083;-71
2022/05/19 05:30:49;;;;;;;0.55;0.15;;;18.40;79.50;;;;;;5035464;28;20233;-70
2022/05/19 05:33:17;;;;;;;1.33;0.20;;;18.40;80.40;;;;;;5029057;28;20032;-70
2022/05/19 05:35:44;;;;;;;4.88;0.32;;;18.30;80.80;;;;;;5029970;28;20031;-70
2022/05/19 05:38:12;;;;;;;1.17;0.20;;;18.20;80.40;;;;;;5032988;28;20510;-71
2022/05/19 05:40:39;;;;;;;0.30;0.30;;;18.20;80.60;;;;;;5025622;28;20048;-70
2022/05/19 05:43:13;;;;;;;2.88;0.30;;;18.30;81.60;;;;;;5029657;28;20496;-71
2022/05/19 05:45:41;;;;;;;0.50;0.20;;;18.30;80.90;;;;;;5025624;28;20036;-70
2022/05/19 05:48:09;;;;;;;0.52;0.17;;;18.30;80.20;;;;;;5026153;28;20053;-70
2022/05/19 05:50:37;;;;;;;0.70;0.20;;;18.40;80.30;;;;;;5027264;28;20494;-70
2022/05/19 05:53:05;;;;;;;2.70;0.45;;;18.30;80.40;;;;;;5035528;28;20044;-70
2022/05/19 05:55:34;;;;;;;1.75;0.30;;;18.40;80.70;;;;;;5033420;28;20120;-71
2022/05/19 05:58:05;;;;;;;2.65;0.20;;;18.50;81.40;;;;;;5033477;28;20503;-70
2022/05/19 06:00:33;;;;;;;4.22;1.05;;;18.50;81.10;;;;;;5030780;28;20430;-69
2022/05/19 06:03:00;;;;;;;1.70;0.40;;;18.50;79.70;;;;;;5035138;28;20091;-70
2022/05/19 06:05:28;;;;;;;3.00;0.35;;;18.40;80.40;;;;;;5031545;28;20037;-69
2022/05/19 06:07:55;;;;;;;0.85;0.43;;;18.20;81.20;;;;;;5036289;28;20033;-70
2022/05/19 06:10:23;;;;;;;1.48;0.45;;;18.10;81.40;;;;;;5037850;28;20045;-68
2022/05/19 06:12:50;;;;;;;2.05;0.52;;;17.90;82.40;;;;;;5035197;28;20029;-70
2022/05/19 06:15:18;;;;;;;2.80;0.40;;;17.80;83.10;;;;;;5033548;28;20025;-70
2022/05/19 06:17:45;;;;;;;1.67;0.30;;;17.60;83.30;;;;;;5048445;28;20040;-77
2022/05/19 06:20:16;;;;;;;1.05;0.20;;;17.50;84.00;;;;;;5044747;28;20025;-72
2022/05/19 06:22:44;;;;;;;3.10;0.35;;;17.40;84.00;;;;;;5044018;28;20426;-71
2022/05/19 06:25:15;;;;;;;0.63;0.30;;;17.30;85.40;;;;;;5039074;28;20468;-71
2022/05/19 06:27:44;;;;;;;13.32;6.68;;;17.30;85.80;;;;;;5036607;28;20034;-72
2022/05/19 06:30:12;;;;;;;13.23;8.40;;;17.20;85.40;;;;;;5048457;28;20095;-71
2022/05/19 06:32:41;;;;;;;10.13;6.05;;;17.20;86.50;;;;;;5039425;28;20511;-72
2022/05/19 06:35:10;;;;;;;7.63;5.20;;;17.10;86.30;;;;;;5039683;28;20186;-70
2022/05/19 06:37:37;;;;;;;3.63;2.67;;;17.10;86.00;;;;;;5048172;28;20055;-70
2022/05/19 06:40:06;;;;;;;4.40;1.42;;;17.10;85.40;;;;;;5050277;28;20052;-71
2022/05/19 06:42:35;;;;;;;3.92;1.08;;;17.20;85.60;;;;;;5042856;28;20428;-71
2022/05/19 06:45:04;;;;;;;1.85;1.10;;;17.20;86.50;;;;;;5038439;28;20029;-70
2022/05/19 06:47:31;;;;;;;2.75;1.13;;;17.20;87.10;;;;;;5049966;28;20072;-71
2022/05/19 06:49:59;;;;;;;2.05;0.90;;;17.00;87.90;;;;;;5041861;28;20472;-70
2022/05/19 06:52:29;;;;;;;2.33;1.30;;;16.90;89.00;;;;;;5030579;28;20037;-70
2022/05/19 06:55:00;;;;;;;1.42;0.40;;;16.80;88.90;;;;;;5037247;28;20029;-70
2022/05/19 06:57:31;;;;;;;1.98;0.80;;;16.60;89.50;;;;;;5040663;28;20463;-70
2022/05/19 06:59:58;;;;;;;2.90;0.70;;;16.50;90.00;;;;;;5041199;28;20040;-69
2022/05/19 07:02:26;;;;;;;2.33;0.60;;;16.40;90.40;;;;;;5037925;28;20108;-70
2022/05/19 07:04:54;;;;;;;5.78;0.77;;;16.30;90.80;;;;;;5031235;28;20025;-70
2022/05/19 07:07:21;;;;;;;2.60;0.80;;;16.20;91.20;;;;;;5040128;28;20599;-70
2022/05/19 07:09:48;;;;;;;4.47;0.77;;;16.00;91.40;;;;;;5045630;28;20033;-71
2022/05/19 07:12:22;;;;;;;2.88;0.52;;;15.90;91.70;;;;;;5036231;28;20032;-71
2022/05/19 07:14:51;;;;;;;1.00;0.80;;;15.80;91.80;;;;;;5042182;28;20067;-71
2022/05/19 07:17:18;;;;;;;1.27;0.43;;;15.70;92.10;;;;;;5043609;28;20033;-71
2022/05/19 07:22:34;;;;;;;3.08;1.05;;;15.50;92.20;;;;;;5041130;28;20486;-71
2022/05/19 07:25:06;;;;;;;2.63;1.65;;;15.40;92.40;;;;;;5039837;28;20068;-72
2022/05/19 07:27:33;;;;;;;2.95;1.95;;;15.30;92.70;;;;;;5052404;28;20029;-69
2022/05/19 07:30:01;;;;;;;4.85;1.92;;;15.20;92.80;;;;;;5046175;28;20068;-70
2022/05/19 07:32:29;;;;;;;6.55;2.33;;;15.20;92.90;;;;;;5047034;28;20492;-70
2022/05/19 07:34:56;;;;;;;5.43;3.17;;;15.10;93.10;;;;;;5044600;28;20035;-70
2022/05/19 07:37:26;;;;;;;8.23;3.25;;;15.00;93.00;;;;;;5038685;28;20033;-69
2022/05/19 07:39:54;;;;;;;5.00;2.00;;;15.00;93.10;;;;;;5033933;28;20040;-70
2022/05/19 07:42:22;;;;;;;5.35;1.10;;;15.00;93.60;;;;;;5040388;28;20482;-70
2022/05/19 07:44:51;;;;;;;5.80;2.60;;;14.80;93.50;;;;;;5045576;28;20036;-69
2022/05/19 07:47:19;;;;;;;3.70;1.65;;;14.60;94.00;;;;;;5047939;28;20041;-70
2022/05/19 07:49:47;;;;;;;4.60;1.70;;;14.40;94.00;;;;;;5043828;28;20445;-71
2022/05/19 07:52:14;;;;;;;6.97;1.83;;;14.30;94.20;;;;;;5042669;28;20119;-70
2022/05/19 07:54:42;;;;;;;5.22;2.50;;;14.20;94.10;;;;;;5040017;28;20468;-71
2022/05/19 07:57:10;;;;;;;4.43;2.65;;;14.10;94.50;;;;;;5039511;28;20040;-71
2022/05/19 07:59:37;;;;;;;6.70;2.90;;;14.00;94.80;;;;;;5043041;28;20021;-71
2022/05/19 08:02:05;;;;;;;4.47;1.92;;;13.90;94.50;;;;;;5045812;28;20499;-71
2022/05/19 08:04:32;;;;;;;4.50;1.77;;;13.90;95.00;;;;;;5046917;28;20057;-71
2022/05/19 08:07:01;;;;;;;1.17;0.70;;;13.80;95.20;;;;;;5046030;28;20092;-71
2022/05/19 08:17:59;;;;;;;1.50;0.50;;;13.50;95.80;;;;;;5044477;28;20112;-71
2022/05/19 08:20:28;;;;;;;4.03;1.25;;;13.40;96.10;;;;;;5048011;28;20052;-72
2022/05/19 08:22:56;;;;;;;2.60;1.40;;;13.30;96.10;;;;;;5049235;28;20106;-71
2022/05/19 08:25:26;;;;;;;7.55;2.72;;;13.30;96.00;;;;;;5046226;28;20021;-71
2022/05/19 08:27:58;;;;;;;9.38;1.85;;;13.20;96.10;;;;;;5035204;28;20051;-71
2022/05/19 08:30:26;;;;;;;4.10;1.73;;;13.10;96.60;;;;;;5045613;28;20032;-71
2022/05/19 08:32:55;;;;;;;5.80;1.38;;;13.00;96.90;;;;;;5044870;28;20039;-71
2022/05/19 08:35:22;;;;;;;3.60;1.33;;;13.00;97.20;;;;;;5036266;28;20029;-71
2022/05/19 08:37:50;;;;;;;2.40;0.82;;;12.90;97.20;;;;;;5034368;28;20542;-72
2022/05/19 08:40:20;;;;;;;1.80;0.80;;;12.90;97.20;;;;;;5039965;28;20047;-71
2022/05/19 08:42:57;;;;;;;2.95;0.98;;;12.80;97.30;;;;;;5028622;28;20037;-71
2022/05/19 08:45:47;;;;;;;1.75;0.55;;;12.80;97.50;;;;;;5035048;28;20025;-71
2022/05/19 08:48:21;;;;;;;2.60;0.50;;;12.80;97.30;;;;;;5039370;28;20076;-71
2022/05/19 08:50:52;;;;;;;4.15;0.52;;;12.70;97.30;;;;;;5042402;28;20037;-70
2022/05/19 08:53:19;;;;;;;5.20;0.75;;;12.80;97.00;;;;;;5046747;28;20111;-70
2022/05/19 08:55:54;;;;;;;1.50;0.88;;;12.70;96.90;;;;;;5033301;28;20049;-72
2022/05/19 08:58:42;;;;;;;1.45;0.70;;;12.70;97.00;;;;;;5031877;28;20035;-71
2022/05/19 09:01:26;;;;;;;4.70;0.90;;;12.60;97.10;;;;;;5039038;28;20025;-71
2022/05/19 09:04:26;;;;;;;1.63;1.20;;;12.60;97.10;;;;;;5031399;28;20769;-72
2022/05/19 09:07:59;;;;;;;4.45;1.92;;;12.50;97.10;;;;;;5032193;28;20141;-73
2022/05/19 09:10:50;;;;;;;4.35;1.27;;;12.30;97.40;;;;;;5014551;28;20074;-70
2022/05/19 09:13:41;;;;;;;1.23;0.80;;;12.20;97.80;;;;;;5036269;28;20037;-71
2022/05/19 09:16:21;;;;;;;1.60;1.17;;;12.20;98.20;;;;;;5036115;28;20117;-73
2022/05/19 09:19:00;;;;;;;3.40;1.25;;;12.20;98.20;;;;;;5046852;28;20314;-72
2022/05/19 09:21:27;;;;;;;4.03;1.08;;;12.20;98.30;;;;;;5045717;28;20033;-71
2022/05/19 09:23:55;;;;;;;7.80;3.92;;;12.20;98.30;;;;;;5046700;28;20033;-71
2022/05/19 09:26:34;;;;;;;12.05;4.82;;;12.20;98.30;;;;;;5045703;28;20021;-72
2022/05/19 09:29:07;;;;;;;10.70;6.47;;;12.20;98.70;;;;;;5047009;28;20024;-72
2022/05/19 09:31:41;;;;;;;9.10;5.45;;;12.20;99.00;;;;;;5037260;28;20044;-72
2022/05/19 09:34:10;;;;;;;11.43;4.82;;;12.10;99.20;;;;;;5047701;28;20456;-72
2022/05/19 09:36:48;;;;;;;5.78;2.22;;;12.10;99.50;;;;;;5048781;28;20044;-72
2022/05/19 09:39:17;;;;;;;8.68;2.22;;;12.10;99.60;;;;;;5047112;28;20038;-72
2022/05/19 09:41:56;;;;;;;6.43;2.28;;;12.00;99.70;;;;;;5040436;28;20013;-72
2022/05/19 09:44:34;;;;;;;6.15;2.95;;;12.00;99.90;;;;;;5044091;28;20032;-73
2022/05/19 09:47:25;;;;;;;4.50;3.35;;;12.00;99.90;;;;;;5052086;28;20028;-73
2022/05/19 09:50:06;;;;;;;6.10;2.28;;;12.00;99.90;;;;;;5050043;28;20044;-72
2022/05/19 09:52:34;;;;;;;2.83;1.85;;;12.00;99.90;;;;;;5050918;28;20036;-72
2022/05/19 09:55:07;;;;;;;5.05;2.85;;;12.00;99.90;;;;;;5047457;28;20135;-73
2022/05/19 09:57:51;;;;;;;2.47;1.23;;;12.00;99.90;;;;;;5050796;28;20036;-72
2022/05/19 10:00:29;;;;;;;1.73;0.95;;;11.90;99.90;;;;;;5049290;28;20096;-72
2022/05/19 10:02:59;;;;;;;3.65;1.08;;;11.90;99.90;;;;;;5038463;28;20022;-71
2022/05/19 10:05:33;;;;;;;3.50;0.90;;;11.80;99.90;;;;;;5038332;28;20112;-72
2022/05/19 10:08:07;;;;;;;2.20;1.00;;;11.90;99.90;;;;;;5039980;28;20021;-73
2022/05/19 10:10:47;;;;;;;2.28;0.98;;;11.80;99.90;;;;;;5049596;28;20036;-73
2022/05/19 10:13:17;;;;;;;3.78;0.63;;;11.80;99.90;;;;;;5033939;28;20017;-73
2022/05/19 10:16:30;;;;;;;3.28;0.80;;;11.80;99.90;;;;;;5045415;28;20013;-72
2022/05/19 10:19:44;;;;;;;7.28;1.15;;;11.70;99.90;;;;;;5023100;28;20496;-72
2022/05/19 10:22:36;;;;;;;7.97;1.40;;;11.70;99.90;;;;;;5025014;28;20037;-72
2022/05/19 10:25:17;;;;;;;4.10;1.35;;;11.70;99.90;;;;;;5046959;28;20025;-73
2022/05/19 10:31:51;;;;;;;3.55;1.65;;;11.60;99.90;;;;;;5048219;28;20587;-71
2022/05/19 10:34:42;;;;;;;2.05;1.17;;;11.60;99.90;;;;;;5021310;28;20030;-70
2022/05/19 10:37:13;;;;;;;3.17;1.30;;;11.50;99.90;;;;;;5034277;28;20048;-72
2022/05/19 10:39:58;;;;;;;2.22;1.58;;;11.50;99.90;;;;;;5051183;28;20025;-71
2022/05/19 10:43:05;;;;;;;2.72;1.50;;;11.50;99.90;;;;;;5043234;28;20060;-72
2022/05/19 10:45:39;;;;;;;11.50;1.65;;;11.40;99.90;;;;;;5038187;28;20086;-72
2022/05/19 10:48:41;;;;;;;2.58;1.05;;;11.30;99.90;;;;;;5039625;28;20097;-72
2022/05/19 10:51:18;;;;;;;3.35;1.80;;;11.20;99.90;;;;;;5032089;28;20068;-71
2022/05/19 10:54:17;;;;;;;3.28;1.65;;;11.20;99.90;;;;;;5052975;28;20037;-72
2022/05/19 10:57:19;;;;;;;3.05;1.80;;;11.10;99.90;;;;;;5047086;28;20033;-72
2022/05/19 11:00:06;;;;;;;2.42;1.17;;;11.00;99.90;;;;;;5043031;28;20021;-72
2022/05/19 11:03:06;;;;;;;1.58;0.98;;;10.90;99.90;;;;;;5037810;28;20032;-72
2022/05/19 11:05:42;;;;;;;4.38;1.05;;;10.90;99.90;;;;;;5035310;28;20044;-72
2022/05/19 11:08:40;;;;;;;2.60;1.23;;;10.80;99.90;;;;;;5035921;28;20480;-73
2022/05/19 11:11:30;;;;;;;2.40;1.17;;;10.70;99.90;;;;;;5038025;28;20593;-73
2022/05/19 11:14:21;;;;;;;2.97;0.90;;;10.70;99.90;;;;;;5035133;28;20036;-73
2022/05/19 11:17:16;;;;;;;2.38;0.98;;;10.70;99.90;;;;;;5033605;28;20108;-72
2022/05/19 11:19:58;;;;;;;9.68;0.90;;;10.60;99.90;;;;;;5047569;28;20025;-71
2022/05/19 11:22:30;;;;;;;3.92;1.00;;;10.60;99.90;;;;;;5032477;28;20033;-72
2022/05/19 11:28:33;;;;;;;7.07;0.65;;;10.50;99.90;;;;;;5033884;28;20063;-72
2022/05/19 11:31:10;;;;;;;3.05;0.80;;;10.50;99.90;;;;;;5047283;28;20037;-71
2022/05/19 11:33:40;;;;;;;3.63;0.80;;;10.40;99.90;;;;;;5039785;28;20034;-71
2022/05/19 11:36:31;;;;;;;3.28;0.98;;;10.40;99.90;;;;;;5034545;28;20408;-72
2022/05/19 11:39:09;;;;;;;3.72;1.27;;;10.40;99.90;;;;;;5046899;28;20036;-73
2022/05/19 11:41:39;;;;;;;6.43;1.95;;;10.40;99.90;;;;;;5032220;28;20025;-73
2022/05/19 11:44:12;;;;;;;4.88;1.60;;;10.40;99.90;;;;;;5045317;28;20021;-73
2022/05/19 11:46:57;;;;;;;4.18;2.00;;;10.30;99.90;;;;;;5032885;28;20030;-73
2022/05/19 11:55:33;;;;;;;2.78;2.35;;;10.20;99.90;;;;;;5039234;28;20457;-73
2022/05/19 11:58:10;;;;;;;2.50;1.48;;;10.20;99.90;;;;;;5032492;28;20064;-73
2022/05/19 12:00:47;;;;;;;3.85;2.10;;;10.10;99.90;;;;;;5038163;28;20453;-72
2022/05/19 12:03:46;;;;;;;1.60;0.90;;;10.10;99.90;;;;;;5035593;28;20021;-73
2022/05/19 12:06:17;;;;;;;2.65;1.20;;;10.00;99.90;;;;;;5039948;28;20032;-73
2022/05/19 12:08:58;;;;;;;3.47;0.90;;;10.00;99.90;;;;;;5038537;28;20635;-72
2022/05/19 12:11:45;;;;;;;2.72;1.02;;;9.90;99.90;;;;;;5042078;28;20127;-73
2022/05/19 12:14:18;;;;;;;2.38;0.70;;;9.90;99.90;;;;;;5045195;28;20538;-72
2022/05/19 12:16:55;;;;;;;3.13;1.17;;;9.80;99.90;;;;;;5048514;28;20376;-72
2022/05/19 12:19:36;;;;;;;3.75;1.08;;;9.80;99.90;;;;;;5036417;28;20372;-73
2022/05/19 12:22:23;;;;;;;1.80;1.02;;;9.80;99.90;;;;;;5045633;28;20026;-73
2022/05/19 12:24:57;;;;;;;2.42;1.17;;;9.80;99.90;;;;;;5038981;28;20079;-72
2022/05/19 12:27:30;;;;;;;4.55;0.82;;;9.80;99.90;;;;;;5039987;28;20079;-72
2022/05/19 12:33:21;;;;;;;1.75;0.82;;;9.70;99.90;;;;;;5045942;28;20043;-72
2022/05/19 12:35:52;;;;;;;6.93;1.23;;;9.70;99.90;;;;;;5036551;28;20375;-72
2022/05/19 12:38:30;;;;;;;2.15;1.00;;;9.60;99.90;;;;;;5044377;28;20051;-72
2022/05/19 12:41:06;;;;;;;4.90;1.10;;;9.60;99.90;;;;;;5046085;28;20029;-72
2022/05/19 12:43:43;;;;;;;1.42;1.00;;;9.70;99.90;;;;;;5042145;28;20035;-72
2022/05/19 12:46:14;;;;;;;1.15;0.90;;;9.70;99.90;;;;;;5041909;28;20040;-73
2022/05/19 12:48:51;;;;;;;5.18;1.35;;;9.80;99.90;;;;;;5032241;28;20064;-73
2022/05/19 12:51:49;;;;;;;6.57;1.52;;;9.90;99.90;;;;;;5031758;28;20095;-73
2022/05/19 12:54:17;;;;;;;3.78;1.25;;;10.10;99.90;;;;;;5029721;28;20025;-73
2022/05/19 12:56:46;;;;;;;2.30;1.17;;;10.20;99.90;;;;;;5030882;28;20032;-73
2022/05/19 12:59:32;;;;;;;2.90;1.05;;;10.30;99.90;;;;;;5031064;28;20529;-73
2022/05/19 13:02:09;;;;;;;4.63;1.47;;;10.30;99.90;;;;;;5038862;28;20029;-73
2022/05/19 13:04:47;;;;;;;4.13;1.08;;;10.30;99.90;;;;;;5039088;28;20122;-72
2022/05/19 13:07:42;;;;;;;2.53;1.27;;;10.30;99.90;;;;;;5040380;28;20029;-73
2022/05/19 13:10:24;;;;;;;1.80;0.93;;;10.30;99.90;;;;;;5037682;28;20028;-73
2022/05/19 13:13:34;;;;;;;2.05;1.20;;;10.30;99.90;;;;;;5032476;28;20032;-72
2022/05/19 13:16:12;;;;;;;1.23;0.82;;;10.20;99.90;;;;;;5020744;28;20033;-73
2022/05/19 13:18:43;;;;;;;6.72;1.63;;;10.20;99.90;;;;;;5017917;28;20492;-73
2022/05/19 13:21:24;;;;;;;4.82;1.33;;;10.20;99.90;;;;;;5038375;28;20132;-73
2022/05/19 13:23:51;;;;;;;1.02;0.80;;;10.20;99.90;;;;;;5030487;28;20045;-73
2022/05/19 13:26:25;;;;;;;1.73;0.93;;;10.20;99.90;;;;;;5036046;28;20475;-73
2022/05/19 13:31:55;;;;;;;6.80;2.20;;;10.00;99.90;;;;;;5030869;28;20049;-72
2022/05/19 13:34:27;;;;;;;1.15;0.82;;;10.00;99.90;;;;;;5039063;28;20030;-73
2022/05/19 13:37:00;;;;;;;1.33;0.70;;;10.00;99.90;;;;;;5044845;28;20042;-74
2022/05/19 13:39:28;;;;;;;2.65;1.10;;;9.90;99.90;;;;;;5041659;28;20021;-73
2022/05/19 13:42:08;;;;;;;4.20;1.33;;;9.90;99.90;;;;;;5049349;28;20036;-73
2022/05/19 13:44:45;;;;;;;1.85;0.60;;;9.80;99.90;;;;;;5029426;28;20074;-73
2022/05/19 13:47:21;;;;;;;1.35;0.70;;;9.80;99.90;;;;;;5035990;28;20041;-73
2022/05/19 13:49:59;;;;;;;4.03;1.37;;;9.80;99.90;;;;;;5045400;28;20036;-73
2022/05/19 13:52:31;;;;;;;1.75;0.88;;;9.70;99.90;;;;;;5045173;28;20104;-72
2022/05/19 13:54:58;;;;;;;1.40;0.80;;;9.70;99.90;;;;;;5046277;28;20060;-73